sensor_id;sensor_type;location;lat;lon;timestamp;pressure;altitude;pressure_sealevel;temperature;humidity
46430;BME280;32131;53.454;-6.180;2024-01-15T00:01:58;101529.50;;;0.07;100.00
46430;BME280;32131;53.454;-6.180;2024-01-15T00:04:38;101526.19;;;0.08;100.00
46430;BME280;32131;53.454;-6.180;2024-01-15T00:07:13;101529.50;;;0.07;100.00
46430;BME280;32131;53.454;-6.180;2024-01-15T00:09:45;101509.78;;;0.03;100.00
46430;BME280;32131;53.454;-6.180;2024-01-15T00:12:14;101517.16;;;-0.01;100.00
46430;BME280;32131;53.454;-6.180;2024-01-15T00:14:42;101518.69;;;-0.03;100.00
46430;BME280;32131;53.454;-6.180;2024-01-15T00:17:11;101522.81;;;-0.05;100.00
46430;BME280;32131;53.454;-6.180;2024-01-15T00:19:41;101510.66;;;-0.09;100.00
46430;BME280;32131;53.454;-6.180;2024-01-15T00:22:13;101509.31;;;-0.16;100.00
46430;BME280;32131;53.454;-6.180;2024-01-15T00:24:41;101508.34;;;-0.18;100.00
46430;BME280;32131;53.454;-6.180;2024-01-15T00:27:10;101514.31;;;-0.17;100.00
46430;BME280;32131;53.454;-6.180;2024-01-15T00:29:39;101511.53;;;-0.20;100.00
46430;BME280;32131;53.454;-6.180;2024-01-15T00:32:10;101509.81;;;-0.21;100.00
46430;BME280;32131;53.454;-6.180;2024-01-15T00:34:40;101516.28;;;-0.25;100.00
46430;BME280;32131;53.454;-6.180;2024-01-15T00:37:11;101518.94;;;-0.23;100.00
46430;BME280;32131;53.454;-6.180;2024-01-15T00:39:41;101513.66;;;-0.26;100.00
46430;BME280;32131;53.454;-6.180;2024-01-15T00:42:09;101508.38;;;-0.29;100.00
46430;BME280;32131;53.454;-6.180;2024-01-15T00:44:38;101500.44;;;-0.34;100.00
46430;BME280;32131;53.454;-6.180;2024-01-15T00:47:06;101500.28;;;-0.36;100.00
46430;BME280;32131;53.454;-6.180;2024-01-15T00:49:35;101500.84;;;-0.40;100.00
46430;BME280;32131;53.454;-6.180;2024-01-15T00:52:06;101501.63;;;-0.41;100.00
46430;BME280;32131;53.454;-6.180;2024-01-15T00:54:34;101496.44;;;-0.42;100.00
46430;BME280;32131;53.454;-6.180;2024-01-15T00:57:04;101493.00;;;-0.43;100.00
46430;BME280;32131;53.454;-6.180;2024-01-15T00:59:33;101486.94;;;-0.45;100.00
46430;BME280;32131;53.454;-6.180;2024-01-15T01:02:05;101481.66;;;-0.48;100.00
46430;BME280;32131;53.454;-6.180;2024-01-15T01:04:35;101491.03;;;-0.47;100.00
46430;BME280;32131;53.454;-6.180;2024-01-15T01:07:08;101485.84;;;-0.49;100.00
46430;BME280;32131;53.454;-6.180;2024-01-15T01:09:38;101484.97;;;-0.49;100.00
46430;BME280;32131;53.454;-6.180;2024-01-15T01:12:10;101489.47;;;-0.45;100.00
46430;BME280;32131;53.454;-6.180;2024-01-15T01:14:42;101489.13;;;-0.50;100.00
46430;BME280;32131;53.454;-6.180;2024-01-15T01:17:11;101485.84;;;-0.49;100.00
46430;BME280;32131;53.454;-6.180;2024-01-15T01:19:41;101473.72;;;-0.53;100.00
46430;BME280;32131;53.454;-6.180;2024-01-15T01:22:14;101480.56;;;-0.52;100.00
46430;BME280;32131;53.454;-6.180;2024-01-15T01:24:42;101479.31;;;-0.45;100.00
46430;BME280;32131;53.454;-6.180;2024-01-15T01:27:10;101464.00;;;-0.46;100.00
46430;BME280;32131;53.454;-6.180;2024-01-15T01:29:40;101462.03;;;-0.39;100.00
46430;BME280;32131;53.454;-6.180;2024-01-15T01:32:19;101454.19;;;-0.42;100.00
46430;BME280;32131;53.454;-6.180;2024-01-15T01:34:56;101454.19;;;-0.42;100.00
46430;BME280;32131;53.454;-6.180;2024-01-15T01:37:43;101453.06;;;-0.34;100.00
46430;BME280;32131;53.454;-6.180;2024-01-15T01:40:17;101449.53;;;-0.36;100.00
46430;BME280;32131;53.454;-6.180;2024-01-15T01:42:45;101453.84;;;-0.35;100.00
46430;BME280;32131;53.454;-6.180;2024-01-15T01:45:15;101449.34;;;-0.39;100.00
46430;BME280;32131;53.454;-6.180;2024-01-15T01:47:57;101458.81;;;-0.36;100.00
46430;BME280;32131;53.454;-6.180;2024-01-15T01:50:28;101447.00;;;-0.36;100.00
46430;BME280;32131;53.454;-6.180;2024-01-15T01:53:00;101449.09;;;-0.42;100.00
46430;BME280;32131;53.454;-6.180;2024-01-15T01:56:11;101443.25;;;-0.41;100.00
46430;BME280;32131;53.454;-6.180;2024-01-15T01:58:46;101450.88;;;-0.41;100.00
46430;BME280;32131;53.454;-6.180;2024-01-15T02:01:19;101450.09;;;-0.40;100.00
46430;BME280;32131;53.454;-6.180;2024-01-15T02:03:50;101453.41;;;-0.41;100.00
46430;BME280;32131;53.454;-6.180;2024-01-15T02:06:41;101454.72;;;-0.46;100.00
46430;BME280;32131;53.454;-6.180;2024-01-15T02:09:18;101443.59;;;-0.48;100.00
46430;BME280;32131;53.454;-6.180;2024-01-15T02:11:52;101446.00;;;-0.50;100.00
46430;BME280;32131;53.454;-6.180;2024-01-15T02:14:27;101430.69;;;-0.51;100.00
46430;BME280;32131;53.454;-6.180;2024-01-15T02:17:08;101439.72;;;-0.55;100.00
46430;BME280;32131;53.454;-6.180;2024-01-15T02:19:46;101442.38;;;-0.53;100.00
46430;BME280;32131;53.454;-6.180;2024-01-15T02:22:18;101448.13;;;-0.56;100.00
46430;BME280;32131;53.454;-6.180;2024-01-15T02:24:48;101448.78;;;-0.58;100.00
46430;BME280;32131;53.454;-6.180;2024-01-15T02:27:23;101438.63;;;-0.58;100.00
46430;BME280;32131;53.454;-6.180;2024-01-15T02:29:52;101438.41;;;-0.61;100.00
46430;BME280;32131;53.454;-6.180;2024-01-15T02:32:21;101429.81;;;-0.64;100.00
46430;BME280;32131;53.454;-6.180;2024-01-15T02:34:53;101436.63;;;-0.63;100.00
46430;BME280;32131;53.454;-6.180;2024-01-15T02:37:28;101431.38;;;-0.66;100.00
46430;BME280;32131;53.454;-6.180;2024-01-15T02:40:03;101437.53;;;-0.62;100.00
46430;BME280;32131;53.454;-6.180;2024-01-15T02:42:45;101444.25;;;-0.63;100.00
46430;BME280;32131;53.454;-6.180;2024-01-15T02:45:19;101422.84;;;-0.66;100.00
46430;BME280;32131;53.454;-6.180;2024-01-15T02:47:53;101439.31;;;-0.61;100.00
46430;BME280;32131;53.454;-6.180;2024-01-15T02:50:24;101443.47;;;-0.61;100.00
46430;BME280;32131;53.454;-6.180;2024-01-15T02:52:57;101433.13;;;-0.65;100.00
46430;BME280;32131;53.454;-6.180;2024-01-15T02:55:36;101431.69;;;-0.61;100.00
46430;BME280;32131;53.454;-6.180;2024-01-15T02:58:05;101428.38;;;-0.60;100.00
46430;BME280;32131;53.454;-6.180;2024-01-15T03:00:35;101440.31;;;-0.59;100.00
46430;BME280;32131;53.454;-6.180;2024-01-15T03:03:08;101436.44;;;-0.54;100.00
46430;BME280;32131;53.454;-6.180;2024-01-15T03:05:41;101438.63;;;-0.58;100.00
46430;BME280;32131;53.454;-6.180;2024-01-15T03:08:12;101443.81;;;-0.57;100.00
46430;BME280;32131;53.454;-6.180;2024-01-15T03:10:43;101447.25;;;-0.56;100.00
46430;BME280;32131;53.454;-6.180;2024-01-15T03:13:15;101429.91;;;-0.62;100.00
46430;BME280;32131;53.454;-6.180;2024-01-15T03:15:45;101436.88;;;-0.59;100.00
46430;BME280;32131;53.454;-6.180;2024-01-15T03:18:16;101453.00;;;-0.59;100.00
46430;BME280;32131;53.454;-6.180;2024-01-15T03:20:44;101449.78;;;-0.56;100.00
46430;BME280;32131;53.454;-6.180;2024-01-15T03:23:14;101446.16;;;-0.60;100.00
46430;BME280;32131;53.454;-6.180;2024-01-15T03:25:46;101454.63;;;-0.59;100.00
46430;BME280;32131;53.454;-6.180;2024-01-15T03:28:19;101443.72;;;-0.58;100.00
46430;BME280;32131;53.454;-6.180;2024-01-15T03:30:51;101441.94;;;-0.59;100.00
46430;BME280;32131;53.454;-6.180;2024-01-15T03:33:24;101452.09;;;-0.59;100.00
46430;BME280;32131;53.454;-6.180;2024-01-15T03:35:58;101455.63;;;-0.57;100.00
46430;BME280;32131;53.454;-6.180;2024-01-15T03:38:34;101455.53;;;-0.59;100.00
46430;BME280;32131;53.454;-6.180;2024-01-15T03:41:06;101439.84;;;-0.65;100.00
46430;BME280;32131;53.454;-6.180;2024-01-15T03:43:38;101441.59;;;-0.64;100.00
46430;BME280;32131;53.454;-6.180;2024-01-15T03:46:09;101442.19;;;-0.68;100.00
46430;BME280;32131;53.454;-6.180;2024-01-15T03:48:41;101441.06;;;-0.72;100.00
46430;BME280;32131;53.454;-6.180;2024-01-15T03:51:17;101434.22;;;-0.73;100.00
46430;BME280;32131;53.454;-6.180;2024-01-15T03:53:47;101441.72;;;-0.74;100.00
46430;BME280;32131;53.454;-6.180;2024-01-15T03:56:25;101421.97;;;-0.78;100.00
46430;BME280;32131;53.454;-6.180;2024-01-15T03:58:53;101418.53;;;-0.79;100.00
46430;BME280;32131;53.454;-6.180;2024-01-15T04:01:25;101411.94;;;-0.77;100.00
46430;BME280;32131;53.454;-6.180;2024-01-15T04:04:02;101412.59;;;-0.80;100.00
46430;BME280;32131;53.454;-6.180;2024-01-15T04:06:39;101424.53;;;-0.78;100.00
46430;BME280;32131;53.454;-6.180;2024-01-15T04:09:11;101424.41;;;-0.80;100.00
46430;BME280;32131;53.454;-6.180;2024-01-15T04:11:41;101417.69;;;-0.80;100.00
46430;BME280;32131;53.454;-6.180;2024-01-15T04:14:15;101425.28;;;-0.80;100.00
46430;BME280;32131;53.454;-6.180;2024-01-15T04:16:46;101416.47;;;-0.85;100.00
46430;BME280;32131;53.454;-6.180;2024-01-15T04:19:16;101420.88;;;-0.82;100.00
46430;BME280;32131;53.454;-6.180;2024-01-15T04:21:46;101420.88;;;-0.82;100.00
46430;BME280;32131;53.454;-6.180;2024-01-15T04:24:21;101410.59;;;-0.84;100.00
46430;BME280;32131;53.454;-6.180;2024-01-15T04:26:54;101419.13;;;-0.83;100.00
46430;BME280;32131;53.454;-6.180;2024-01-15T04:29:23;101427.38;;;-0.86;100.00
46430;BME280;32131;53.454;-6.180;2024-01-15T04:31:52;101433.56;;;-0.94;100.00
46430;BME280;32131;53.454;-6.180;2024-01-15T04:34:21;101445.88;;;-0.99;100.00
46430;BME280;32131;53.454;-6.180;2024-01-15T04:36:53;101442.34;;;-1.01;100.00
46430;BME280;32131;53.454;-6.180;2024-01-15T04:39:22;101425.38;;;-1.02;100.00
46430;BME280;32131;53.454;-6.180;2024-01-15T04:41:51;101422.06;;;-1.01;100.00
46430;BME280;32131;53.454;-6.180;2024-01-15T04:44:21;101406.84;;;-1.01;100.00
46430;BME280;32131;53.454;-6.180;2024-01-15T04:46:54;101394.94;;;-1.02;100.00
46430;BME280;32131;53.454;-6.180;2024-01-15T04:49:24;101410.81;;;-1.04;100.00
46430;BME280;32131;53.454;-6.180;2024-01-15T04:51:56;101426.13;;;-1.03;100.00
46430;BME280;32131;53.454;-6.180;2024-01-15T04:54:30;101426.47;;;-1.10;100.00
46430;BME280;32131;53.454;-6.180;2024-01-15T04:57:06;101425.47;;;-1.12;100.00
46430;BME280;32131;53.454;-6.180;2024-01-15T04:59:37;101427.78;;;-1.15;100.00
46430;BME280;32131;53.454;-6.180;2024-01-15T05:02:06;101427.13;;;-1.13;100.00
46430;BME280;32131;53.454;-6.180;2024-01-15T05:04:35;101426.78;;;-1.17;100.00
46430;BME280;32131;53.454;-6.180;2024-01-15T05:07:07;101435.91;;;-1.19;100.00
46430;BME280;32131;53.454;-6.180;2024-01-15T05:09:42;101434.91;;;-1.21;100.00
46430;BME280;32131;53.454;-6.180;2024-01-15T05:12:12;101437.00;;;-1.28;100.00
46430;BME280;32131;53.454;-6.180;2024-01-15T05:14:44;101445.38;;;-1.29;100.00
46430;BME280;32131;53.454;-6.180;2024-01-15T05:17:12;101441.97;;;-1.29;100.00
46430;BME280;32131;53.454;-6.180;2024-01-15T05:19:40;101451.00;;;-1.33;100.00
46430;BME280;32131;53.454;-6.180;2024-01-15T05:22:09;101455.06;;;-1.35;100.00
46430;BME280;32131;53.454;-6.180;2024-01-15T05:24:38;101454.81;;;-1.38;100.00
46430;BME280;32131;53.454;-6.180;2024-01-15T05:27:11;101459.66;;;-1.41;100.00
46430;BME280;32131;53.454;-6.180;2024-01-15T05:29:48;101449.28;;;-1.44;100.00
46430;BME280;32131;53.454;-6.180;2024-01-15T05:32:17;101437.28;;;-1.47;100.00
46430;BME280;32131;53.454;-6.180;2024-01-15T05:34:45;101437.19;;;-1.48;100.00
46430;BME280;32131;53.454;-6.180;2024-01-15T05:37:28;101437.19;;;-1.48;100.00
46430;BME280;32131;53.454;-6.180;2024-01-15T05:39:58;101443.53;;;-1.53;100.00
46430;BME280;32131;53.454;-6.180;2024-01-15T05:42:31;101443.06;;;-1.60;100.00
46430;BME280;32131;53.454;-6.180;2024-01-15T05:45:04;101460.03;;;-1.59;100.00
46430;BME280;32131;53.454;-6.180;2024-01-15T05:47:36;101467.38;;;-1.62;100.00
46430;BME280;32131;53.454;-6.180;2024-01-15T05:50:08;101470.69;;;-1.63;100.00
46430;BME280;32131;53.454;-6.180;2024-01-15T05:52:37;101479.09;;;-1.64;100.00
46430;BME280;32131;53.454;-6.180;2024-01-15T05:55:09;101483.13;;;-1.66;100.00
46430;BME280;32131;53.454;-6.180;2024-01-15T05:57:38;101471.88;;;-1.69;100.00
46430;BME280;32131;53.454;-6.180;2024-01-15T06:00:09;101472.25;;;-1.65;100.00
46430;BME280;32131;53.454;-6.180;2024-01-15T06:02:38;101462.88;;;-1.66;100.00
46430;BME280;32131;53.454;-6.180;2024-01-15T06:05:07;101449.97;;;-1.69;100.00
46430;BME280;32131;53.454;-6.180;2024-01-15T06:07:36;101440.75;;;-1.68;100.00
46430;BME280;32131;53.454;-6.180;2024-01-15T06:10:07;101434.78;;;-1.69;100.00
46430;BME280;32131;53.454;-6.180;2024-01-15T06:12:44;101434.88;;;-1.67;100.00
46430;BME280;32131;53.454;-6.180;2024-01-15T06:15:15;101443.28;;;-1.68;100.00
46430;BME280;32131;53.454;-6.180;2024-01-15T06:17:43;101446.78;;;-1.66;100.00
46430;BME280;32131;53.454;-6.180;2024-01-15T06:20:14;101455.13;;;-1.67;100.00
46430;BME280;32131;53.454;-6.180;2024-01-15T06:22:43;101449.22;;;-1.68;100.00
46430;BME280;32131;53.454;-6.180;2024-01-15T06:25:11;101449.31;;;-1.66;100.00
46430;BME280;32131;53.454;-6.180;2024-01-15T06:27:46;101449.88;;;-1.70;100.00
46430;BME280;32131;53.454;-6.180;2024-01-15T06:30:22;101459.44;;;-1.66;100.00
46430;BME280;32131;53.454;-6.180;2024-01-15T06:33:09;101458.69;;;-1.65;100.00
46430;BME280;32131;53.454;-6.180;2024-01-15T06:35:44;101453.88;;;-1.62;100.00
46430;BME280;32131;53.454;-6.180;2024-01-15T06:38:19;101452.75;;;-1.66;100.00
46430;BME280;32131;53.454;-6.180;2024-01-15T06:41:15;101451.75;;;-1.68;100.00
46430;BME280;32131;53.454;-6.180;2024-01-15T06:43:44;101456.91;;;-1.66;100.00
46430;BME280;32131;53.454;-6.180;2024-01-15T06:46:23;101461.00;;;-1.68;100.00
46430;BME280;32131;53.454;-6.180;2024-01-15T06:48:58;101465.28;;;-1.67;100.00
46430;BME280;32131;53.454;-6.180;2024-01-15T06:51:47;101475.19;;;-1.70;100.00
46430;BME280;32131;53.454;-6.180;2024-01-15T06:54:18;101475.84;;;-1.73;100.00
46430;BME280;32131;53.454;-6.180;2024-01-15T06:56:54;101474.19;;;-1.72;100.00
46430;BME280;32131;53.454;-6.180;2024-01-15T06:59:41;101469.56;;;-1.66;100.00
46430;BME280;32131;53.454;-6.180;2024-01-15T07:02:25;101477.16;;;-1.66;100.00
46430;BME280;32131;53.454;-6.180;2024-01-15T07:05:11;101462.16;;;-1.75;100.00
46430;BME280;32131;53.454;-6.180;2024-01-15T07:07:55;101481.13;;;-1.70;100.00
46430;BME280;32131;53.454;-6.180;2024-01-15T07:10:45;101481.78;;;-1.72;100.00
46430;BME280;32131;53.454;-6.180;2024-01-15T07:13:45;101481.16;;;-1.80;100.00
46430;BME280;32131;53.454;-6.180;2024-01-15T07:16:32;101491.28;;;-1.80;100.00
46430;BME280;32131;53.454;-6.180;2024-01-15T07:19:39;101485.00;;;-1.85;100.00
46430;BME280;32131;53.454;-6.180;2024-01-15T07:22:14;101487.44;;;-1.87;100.00
46430;BME280;32131;53.454;-6.180;2024-01-15T07:25:04;101482.00;;;-1.92;100.00
46430;BME280;32131;53.454;-6.180;2024-01-15T07:27:46;101490.72;;;-1.88;100.00
46430;BME280;32131;53.454;-6.180;2024-01-15T07:30:39;101491.00;;;-1.95;100.00
46430;BME280;32131;53.454;-6.180;2024-01-15T07:33:31;101503.28;;;-1.90;100.00
46430;BME280;32131;53.454;-6.180;2024-01-15T07:36:09;101499.47;;;-1.95;100.00
46430;BME280;32131;53.454;-6.180;2024-01-15T07:38:38;101501.91;;;-1.96;100.00
46430;BME280;32131;53.454;-6.180;2024-01-15T07:41:10;101515.22;;;-1.99;100.00
46430;BME280;32131;53.454;-6.180;2024-01-15T07:43:41;101512.66;;;-1.99;100.00
46430;BME280;32131;53.454;-6.180;2024-01-15T07:46:15;101516.31;;;-1.95;100.00
46430;BME280;32131;53.454;-6.180;2024-01-15T07:48:49;101509.38;;;-1.98;100.00
46430;BME280;32131;53.454;-6.180;2024-01-15T07:51:25;101503.03;;;-1.93;100.00
46430;BME280;32131;53.454;-6.180;2024-01-15T07:54:06;101492.88;;;-1.93;100.00
46430;BME280;32131;53.454;-6.180;2024-01-15T07:56:56;101503.13;;;-1.91;100.00
46430;BME280;32131;53.454;-6.180;2024-01-15T07:59:25;101494.88;;;-1.88;100.00
46430;BME280;32131;53.454;-6.180;2024-01-15T08:04:36;101505.66;;;-1.91;100.00
46430;BME280;32131;53.454;-6.180;2024-01-15T08:07:13;101503.03;;;-1.93;100.00
46430;BME280;32131;53.454;-6.180;2024-01-15T08:09:45;101514.66;;;-1.95;100.00
46430;BME280;32131;53.454;-6.180;2024-01-15T08:12:37;101524.13;;;-1.92;100.00
46430;BME280;32131;53.454;-6.180;2024-01-15T08:15:06;101519.88;;;-1.93;100.00
46430;BME280;32131;53.454;-6.180;2024-01-15T08:17:37;101524.94;;;-1.93;100.00
46430;BME280;32131;53.454;-6.180;2024-01-15T08:20:17;101528.34;;;-1.93;100.00
46430;BME280;32131;53.454;-6.180;2024-01-15T08:23:32;101530.31;;;-1.88;100.00
46430;BME280;32131;53.454;-6.180;2024-01-15T08:26:13;101523.28;;;-1.93;100.00
46430;BME280;32131;53.454;-6.180;2024-01-15T08:28:52;101518.47;;;-1.90;100.00
46430;BME280;32131;53.454;-6.180;2024-01-15T08:31:31;101519.44;;;-1.87;100.00
46430;BME280;32131;53.454;-6.180;2024-01-15T08:34:10;101532.00;;;-1.89;100.00
46430;BME280;32131;53.454;-6.180;2024-01-15T08:36:49;101532.09;;;-1.87;100.00
46430;BME280;32131;53.454;-6.180;2024-01-15T08:39:23;101536.03;;;-1.91;100.00
46430;BME280;32131;53.454;-6.180;2024-01-15T08:42:06;101546.16;;;-1.91;100.00
46430;BME280;32131;53.454;-6.180;2024-01-15T08:44:37;101551.59;;;-1.86;100.00
46430;BME280;32131;53.454;-6.180;2024-01-15T08:47:18;101550.72;;;-1.87;100.00
46430;BME280;32131;53.454;-6.180;2024-01-15T08:49:54;101549.81;;;-1.87;100.00
46430;BME280;32131;53.454;-6.180;2024-01-15T08:52:22;101550.06;;;-1.84;100.00
46430;BME280;32131;53.454;-6.180;2024-01-15T08:54:58;101542.47;;;-1.84;100.00
46430;BME280;32131;53.454;-6.180;2024-01-15T08:57:38;101534.34;;;-1.80;100.00
46430;BME280;32131;53.454;-6.180;2024-01-15T09:03:44;101541.31;;;-1.78;100.00
46430;BME280;32131;53.454;-6.180;2024-01-15T09:06:40;101552.94;;;-1.69;100.00
46430;BME280;32131;53.454;-6.180;2024-01-15T09:09:46;101550.50;;;-1.68;100.00
46430;BME280;32131;53.454;-6.180;2024-01-15T09:12:23;101556.94;;;-1.61;100.00
46430;BME280;32131;53.454;-6.180;2024-01-15T09:16:56;101554.78;;;-1.56;100.00
46430;BME280;32131;53.454;-6.180;2024-01-15T09:19:29;101549.16;;;-1.52;100.00
46430;BME280;32131;53.454;-6.180;2024-01-15T09:25:26;101548.34;;;-1.41;100.00
46430;BME280;32131;53.454;-6.180;2024-01-15T09:28:26;101548.28;;;-1.31;100.00
46430;BME280;32131;53.454;-6.180;2024-01-15T09:31:13;101540.91;;;-1.28;100.00
46430;BME280;32131;53.454;-6.180;2024-01-15T09:36:44;101556.75;;;-1.08;100.00
46430;BME280;32131;53.454;-6.180;2024-01-15T09:39:25;101563.03;;;-1.03;100.00
46430;BME280;32131;53.454;-6.180;2024-01-15T09:42:24;101558.09;;;-1.01;100.00
46430;BME280;32131;53.454;-6.180;2024-01-15T09:48:30;101566.06;;;-0.97;100.00
46430;BME280;32131;53.454;-6.180;2024-01-15T09:54:25;101570.06;;;-0.88;100.00
46430;BME280;32131;53.454;-6.180;2024-01-15T10:00:31;101573.72;;;-0.73;100.00
46430;BME280;32131;53.454;-6.180;2024-01-15T10:03:24;101572.50;;;-0.66;100.00
46430;BME280;32131;53.454;-6.180;2024-01-15T10:06:26;101569.03;;;-0.56;100.00
46430;BME280;32131;53.454;-6.180;2024-01-15T10:13:26;101575.22;;;-0.41;100.00
46430;BME280;32131;53.454;-6.180;2024-01-15T10:16:39;101573.03;;;-0.36;100.00
46430;BME280;32131;53.454;-6.180;2024-01-15T10:19:09;101580.31;;;-0.29;100.00
46430;BME280;32131;53.454;-6.180;2024-01-15T10:22:16;101588.25;;;-0.24;100.00
46430;BME280;32131;53.454;-6.180;2024-01-15T10:25:17;101596.56;;;-0.15;100.00
46430;BME280;32131;53.454;-6.180;2024-01-15T10:28:53;101600.63;;;-0.05;100.00
46430;BME280;32131;53.454;-6.180;2024-01-15T10:32:11;101595.88;;;-0.01;100.00
46430;BME280;32131;53.454;-6.180;2024-01-15T10:35:18;101593.78;;;0.06;100.00
46430;BME280;32131;53.454;-6.180;2024-01-15T10:42:34;101588.03;;;0.20;100.00
46430;BME280;32131;53.454;-6.180;2024-01-15T10:48:25;101595.50;;;0.30;100.00
46430;BME280;32131;53.454;-6.180;2024-01-15T10:51:35;101596.41;;;0.31;100.00
46430;BME280;32131;53.454;-6.180;2024-01-15T10:54:28;101603.78;;;0.40;100.00
46430;BME280;32131;53.454;-6.180;2024-01-15T10:57:29;101612.06;;;0.49;100.00
46430;BME280;32131;53.454;-6.180;2024-01-15T11:00:28;101611.72;;;0.56;100.00
46430;BME280;32131;53.454;-6.180;2024-01-15T11:03:35;101603.66;;;0.62;100.00
46430;BME280;32131;53.454;-6.180;2024-01-15T11:06:43;101605.97;;;0.71;100.00
46430;BME280;32131;53.454;-6.180;2024-01-15T12:30:29;101562.31;;;1.94;96.56
46430;BME280;32131;53.454;-6.180;2024-01-15T12:33:24;101557.09;;;2.06;96.42
46430;BME280;32131;53.454;-6.180;2024-01-15T12:36:26;101552.19;;;2.23;95.35
46430;BME280;32131;53.454;-6.180;2024-01-15T12:40:04;101552.97;;;2.35;93.79
46430;BME280;32131;53.454;-6.180;2024-01-15T13:01:34;101544.28;;;3.03;91.06
46430;BME280;32131;53.454;-6.180;2024-01-15T13:07:53;101524.94;;;3.07;90.16
46430;BME280;32131;53.454;-6.180;2024-01-15T13:10:26;101520.38;;;3.16;89.85
46430;BME280;32131;53.454;-6.180;2024-01-15T13:16:22;101520.28;;;3.14;89.15
46430;BME280;32131;53.454;-6.180;2024-01-15T13:34:09;101500.50;;;3.72;88.23
46430;BME280;32131;53.454;-6.180;2024-01-15T13:37:06;101503.66;;;3.83;87.82
46430;BME280;32131;53.454;-6.180;2024-01-15T13:41:10;101492.03;;;3.88;87.47
46430;BME280;32131;53.454;-6.180;2024-01-15T13:43:36;101490.78;;;3.96;87.59
46430;BME280;32131;53.454;-6.180;2024-01-15T13:46:40;101491.81;;;4.00;86.40
46430;BME280;32131;53.454;-6.180;2024-01-15T13:49:51;101491.41;;;4.08;86.28
46430;BME280;32131;53.454;-6.180;2024-01-15T14:03:30;101479.94;;;4.17;84.73
46430;BME280;32131;53.454;-6.180;2024-01-15T14:06:38;101480.84;;;4.17;84.52
46430;BME280;32131;53.454;-6.180;2024-01-15T14:09:39;101474.31;;;4.07;83.49
46430;BME280;32131;53.454;-6.180;2024-01-15T14:12:43;101465.72;;;4.05;83.34
46430;BME280;32131;53.454;-6.180;2024-01-15T14:16:15;101459.97;;;4.09;83.17
46430;BME280;32131;53.454;-6.180;2024-01-15T14:19:14;101471.31;;;3.98;82.29
46430;BME280;32131;53.454;-6.180;2024-01-15T14:25:02;101466.97;;;3.97;82.81
46430;BME280;32131;53.454;-6.180;2024-01-15T14:27:44;101468.41;;;4.08;83.12
46430;BME280;32131;53.454;-6.180;2024-01-15T14:30:33;101468.13;;;4.19;82.60
46430;BME280;32131;53.454;-6.180;2024-01-15T14:33:27;101469.47;;;4.29;82.61
46430;BME280;32131;53.454;-6.180;2024-01-15T14:36:12;101466.22;;;4.48;82.51
46430;BME280;32131;53.454;-6.180;2024-01-15T14:38:41;101464.16;;;4.57;81.24
46430;BME280;32131;53.454;-6.180;2024-01-15T14:41:11;101468.91;;;4.67;80.36
46430;BME280;32131;53.454;-6.180;2024-01-15T14:43:46;101474.19;;;4.70;80.01
46430;BME280;32131;53.454;-6.180;2024-01-15T14:46:16;101463.78;;;4.84;79.98
46430;BME280;32131;53.454;-6.180;2024-01-15T14:48:56;101479.91;;;4.83;78.69
46430;BME280;32131;53.454;-6.180;2024-01-15T14:51:42;101472.13;;;4.80;78.41
46430;BME280;32131;53.454;-6.180;2024-01-15T14:54:19;101471.16;;;4.78;78.14
46430;BME280;32131;53.454;-6.180;2024-01-15T14:56:52;101473.78;;;4.79;78.49
46430;BME280;32131;53.454;-6.180;2024-01-15T14:59:24;101460.97;;;4.79;78.47
46430;BME280;32131;53.454;-6.180;2024-01-15T15:01:55;101466.94;;;4.78;78.11
46430;BME280;32131;53.454;-6.180;2024-01-15T15:04:51;101467.38;;;4.71;77.70
46430;BME280;32131;53.454;-6.180;2024-01-15T15:07:36;101473.22;;;4.68;77.58
46430;BME280;32131;53.454;-6.180;2024-01-15T15:10:50;101461.59;;;4.57;77.59
46430;BME280;32131;53.454;-6.180;2024-01-15T15:13:33;101468.28;;;4.55;78.37
46430;BME280;32131;53.454;-6.180;2024-01-15T15:16:54;101466.84;;;4.44;78.10
46430;BME280;32131;53.454;-6.180;2024-01-15T15:20:11;101462.63;;;4.28;78.03
46430;BME280;32131;53.454;-6.180;2024-01-15T15:22:53;101467.25;;;4.18;78.48
46430;BME280;32131;53.454;-6.180;2024-01-15T15:25:47;101462.03;;;4.00;79.04
46430;BME280;32131;53.454;-6.180;2024-01-15T15:28:15;101479.41;;;3.91;78.72
46430;BME280;32131;53.454;-6.180;2024-01-15T15:31:03;101475.31;;;3.78;79.17
46430;BME280;32131;53.454;-6.180;2024-01-15T15:33:31;101475.69;;;3.69;79.22
46430;BME280;32131;53.454;-6.180;2024-01-15T15:42:51;101478.91;;;3.35;80.35
46430;BME280;32131;53.454;-6.180;2024-01-15T15:45:30;101480.34;;;3.30;80.82
46430;BME280;32131;53.454;-6.180;2024-01-15T15:48:14;101480.66;;;3.21;81.20
46430;BME280;32131;53.454;-6.180;2024-01-15T15:51:15;101473.47;;;3.14;81.77
46430;BME280;32131;53.454;-6.180;2024-01-15T15:54:23;101478.47;;;3.12;81.92
46430;BME280;32131;53.454;-6.180;2024-01-15T15:57:09;101479.09;;;3.08;82.35
46430;BME280;32131;53.454;-6.180;2024-01-15T15:59:52;101477.88;;;3.02;82.65
46430;BME280;32131;53.454;-6.180;2024-01-15T16:02:23;101481.03;;;2.97;82.92
46430;BME280;32131;53.454;-6.180;2024-01-15T16:04:57;101484.34;;;2.96;83.53
46430;BME280;32131;53.454;-6.180;2024-01-15T16:08:07;101489.31;;;2.93;84.25
46430;BME280;32131;53.454;-6.180;2024-01-15T16:10:48;101489.03;;;2.89;84.91
46430;BME280;32131;53.454;-6.180;2024-01-15T16:13:19;101489.63;;;2.85;85.40
46430;BME280;32131;53.454;-6.180;2024-01-15T16:15:53;101486.72;;;2.78;85.81
46430;BME280;32131;53.454;-6.180;2024-01-15T16:19:05;101483.63;;;2.69;86.24
46430;BME280;32131;53.454;-6.180;2024-01-15T16:22:06;101485.03;;;2.64;86.54
46430;BME280;32131;53.454;-6.180;2024-01-15T16:25:10;101479.25;;;2.53;86.78
46430;BME280;32131;53.454;-6.180;2024-01-15T16:27:51;101484.69;;;2.44;87.16
46430;BME280;32131;53.454;-6.180;2024-01-15T16:30:23;101483.44;;;2.38;87.72
46430;BME280;32131;53.454;-6.180;2024-01-15T16:33:09;101487.28;;;2.31;87.95
46430;BME280;32131;53.454;-6.180;2024-01-15T16:35:59;101485.94;;;2.23;87.99
46430;BME280;32131;53.454;-6.180;2024-01-15T16:38:50;101475.78;;;2.09;88.16